createdAt,value
2023-08-20T00:00:08.604Z,98686.97
2023-08-20T00:02:42.187Z,98686.50
2023-08-20T00:05:09.447Z,98693.16
2023-08-20T00:07:37.038Z,98691.63
2023-08-20T00:10:03.837Z,98685.88
2023-08-20T00:12:30.995Z,98688.53
2023-08-20T00:15:03.199Z,98689.47
2023-08-20T00:17:30.501Z,98687.47
2023-08-20T00:19:57.309Z,98673.25
2023-08-20T00:22:25.251Z,98683.19
2023-08-20T00:24:53.148Z,98686.28
2023-08-20T00:27:19.919Z,98683.03
2023-08-20T00:29:46.619Z,98688.16
2023-08-20T00:32:13.245Z,98697.38
2023-08-20T00:34:39.751Z,98705.34
2023-08-20T00:37:06.269Z,98700.34
2023-08-20T00:39:33.164Z,98695.66
2023-08-20T00:41:59.666Z,98695.53
2023-08-20T00:44:26.197Z,98705.34
2023-08-20T00:46:52.746Z,98700.50
2023-08-20T00:49:19.713Z,98712.81
2023-08-20T00:51:46.626Z,98713.13
2023-08-20T00:54:13.414Z,98701.75
2023-08-20T00:56:39.960Z,98708.91
2023-08-20T00:59:06.962Z,98708.44
2023-08-20T01:01:33.500Z,98709.69
2023-08-20T01:04:00.020Z,98703.31
2023-08-20T01:06:37.522Z,98705.78
2023-08-20T01:09:13.952Z,98709.66
2023-08-20T01:11:45.208Z,98713.97
2023-08-20T01:14:17.752Z,98711.47
2023-08-20T01:16:46.068Z,98709.91
2023-08-20T01:19:18.169Z,98704.63
2023-08-20T01:22:23.690Z,98709.50
2023-08-20T01:25:05.569Z,98708.22
2023-08-20T01:27:44.569Z,98705.75
2023-08-20T01:30:11.912Z,98706.56
2023-08-20T01:32:39.690Z,98714.47
2023-08-20T01:35:07.193Z,98717.53
2023-08-20T01:37:33.929Z,98721.41
2023-08-20T01:40:00.634Z,98705.78
2023-08-20T01:42:27.185Z,98710.09
2023-08-20T01:44:53.626Z,98707.44
2023-08-20T01:47:20.141Z,98704.00
2023-08-20T01:49:46.625Z,98701.75
2023-08-20T01:52:13.137Z,98695.53
2023-08-20T01:54:39.607Z,98687.75
2023-08-20T01:57:06.138Z,98686.78
2023-08-20T01:59:33.188Z,98684.00
2023-08-20T02:01:59.765Z,98684.72
2023-08-20T02:04:26.320Z,98684.84
2023-08-20T02:06:53.045Z,98685.09
2023-08-20T02:09:19.545Z,98693.50
2023-08-20T02:11:46.239Z,98688.97
2023-08-20T02:14:12.735Z,98692.00
2023-08-20T02:16:39.235Z,98696.94
2023-08-20T02:19:05.725Z,98693.34
2023-08-20T02:21:32.790Z,98701.91
2023-08-20T02:24:02.250Z,98695.81
2023-08-20T02:26:28.792Z,98697.13
2023-08-20T02:28:55.284Z,98696.56
2023-08-20T02:31:21.797Z,98700.00
2023-08-20T02:33:50.448Z,98705.16
2023-08-20T02:36:17.022Z,98703.44
2023-08-20T02:38:43.490Z,98705.94
2023-08-20T02:41:09.937Z,98705.41
2023-08-20T02:43:36.435Z,98707.44
2023-08-20T02:46:02.973Z,98704.00
2023-08-20T02:48:30.397Z,98701.50
2023-08-20T02:50:57.459Z,98710.88
2023-08-20T02:53:24.016Z,98709.63
2023-08-20T02:55:50.486Z,98701.50
2023-08-20T02:58:17.001Z,98705.59
2023-08-20T03:00:43.523Z,98710.66
2023-08-20T03:03:10.054Z,98718.03
2023-08-20T03:05:39.160Z,98714.91
2023-08-20T03:08:05.908Z,98714.28
2023-08-20T03:10:33.009Z,98708.56
2023-08-20T03:13:00.554Z,98717.25
2023-08-20T03:15:27.034Z,98716.03
2023-08-20T03:17:53.727Z,98710.06
2023-08-20T03:20:20.241Z,98725.22
2023-08-20T03:22:46.803Z,98721.19
2023-08-20T03:25:13.360Z,98725.72
2023-08-20T03:27:39.971Z,98731.34
2023-08-20T03:30:07.286Z,98721.28
2023-08-20T03:32:33.929Z,98724.78
2023-08-20T03:35:00.751Z,98722.75
2023-08-20T03:37:27.669Z,98727.75
2023-08-20T03:39:54.186Z,98731.22
2023-08-20T03:42:20.890Z,98728.44
2023-08-20T03:44:49.205Z,98729.50
2023-08-20T03:47:16.886Z,98719.88
2023-08-20T03:49:43.392Z,98731.06
2023-08-20T03:52:09.894Z,98728.00
2023-08-20T03:54:37.008Z,98731.69
2023-08-20T03:57:04.110Z,98727.56
2023-08-20T03:59:31.381Z,98738.97
2023-08-20T04:01:58.391Z,98745.94
2023-08-20T04:04:25.790Z,98742.25
2023-08-20T04:06:52.423Z,98748.81
2023-08-20T04:09:18.932Z,98752.84
2023-08-20T04:11:45.743Z,98741.38
2023-08-20T04:14:12.229Z,98752.44
2023-08-20T04:16:38.773Z,98754.66
2023-08-20T04:19:05.597Z,98757.19
2023-08-20T04:21:32.648Z,98761.72
2023-08-20T04:23:59.831Z,98758.84
2023-08-20T04:26:26.567Z,98768.41
2023-08-20T04:28:53.068Z,98765.41
2023-08-20T04:31:19.923Z,98765.56
2023-08-20T04:33:53.208Z,98770.03
2023-08-20T04:36:23.846Z,98772.97
2023-08-20T04:38:50.323Z,98773.53
2023-08-20T04:41:16.902Z,98770.38
2023-08-20T04:43:44.187Z,98770.56
2023-08-20T04:46:11.258Z,98773.03
2023-08-20T04:48:37.817Z,98779.75
2023-08-20T04:51:04.389Z,98789.72
2023-08-20T04:53:31.142Z,98780.66
2023-08-20T04:55:59.111Z,98787.38
2023-08-20T04:58:25.666Z,98788.94
2023-08-20T05:00:52.295Z,98794.41
2023-08-20T05:03:19.618Z,98799.09
2023-08-20T05:05:50.303Z,98805.16
2023-08-20T05:08:17.533Z,98797.53
2023-08-20T05:10:44.143Z,98803.78
2023-08-20T05:13:12.225Z,98800.66
2023-08-20T05:15:38.724Z,98807.63
2023-08-20T05:18:05.433Z,98806.59
2023-08-20T05:20:32.429Z,98799.38
2023-08-20T05:22:59.258Z,98807.19
2023-08-20T05:25:26.200Z,98811.06
2023-08-20T05:27:52.683Z,98814.47
2023-08-20T05:30:19.199Z,98806.25
2023-08-20T05:32:45.665Z,98804.13
2023-08-20T05:35:14.302Z,98806.16
2023-08-20T05:37:42.320Z,98795.75
2023-08-20T05:40:09.561Z,98809.75
2023-08-20T05:42:36.681Z,98813.78
2023-08-20T05:45:06.677Z,98806.34
2023-08-20T05:47:33.846Z,98806.31
2023-08-20T05:50:01.077Z,98813.78
2023-08-20T05:52:27.901Z,98810.53
2023-08-20T05:54:54.344Z,98807.28
2023-08-20T05:57:22.096Z,98809.94
2023-08-20T05:59:48.965Z,98801.19
2023-08-20T06:02:19.433Z,98811.25
2023-08-20T06:04:46.002Z,98810.38
2023-08-20T06:07:12.816Z,98811.03
2023-08-20T06:09:40.028Z,98807.34
2023-08-20T06:12:07.250Z,98805.19
2023-08-20T06:14:33.707Z,98804.94
2023-08-20T06:17:00.241Z,98802.91
2023-08-20T06:19:27.112Z,98803.72
2023-08-20T06:21:53.582Z,98808.72
2023-08-20T06:24:20.092Z,98806.53
2023-08-20T06:26:47.048Z,98795.44
2023-08-20T06:29:13.575Z,98794.66
2023-08-20T06:31:40.626Z,98789.66
2023-08-20T06:34:07.320Z,98796.84
2023-08-20T06:36:33.787Z,98804.03
2023-08-20T06:39:00.236Z,98813.44
2023-08-20T06:41:26.726Z,98821.38
2023-08-20T06:43:53.247Z,98832.78
2023-08-20T06:46:20.089Z,98830.88
2023-08-20T06:48:46.631Z,98835.25
2023-08-20T06:51:16.570Z,98828.84
2023-08-20T06:53:43.470Z,98838.56
2023-08-20T06:56:10.522Z,98830.44
2023-08-20T06:58:37.280Z,98826.22
2023-08-20T07:01:03.827Z,98838.06
2023-08-20T07:03:30.348Z,98844.63
2023-08-20T07:05:56.801Z,98830.59
2023-08-20T07:08:23.310Z,98833.06
2023-08-20T07:10:49.802Z,98836.16
2023-08-20T07:13:16.280Z,98838.19
2023-08-20T07:15:43.549Z,98831.78
2023-08-20T07:18:10.251Z,98835.25
2023-08-20T07:20:36.796Z,98834.28
2023-08-20T07:23:05.199Z,98828.34
2023-08-20T07:25:32.149Z,98830.94
2023-08-20T07:27:58.605Z,98828.84
2023-08-20T07:30:25.077Z,98831.03
2023-08-20T07:32:51.722Z,98829.97
2023-08-20T07:35:18.339Z,98828.41
2023-08-20T07:37:44.850Z,98836.06
2023-08-20T07:40:16.615Z,98841.69
2023-08-20T07:42:43.700Z,98839.34
2023-08-20T07:45:10.900Z,98834.13
2023-08-20T07:47:38.475Z,98843.75
2023-08-20T07:50:06.385Z,98845.00
2023-08-20T07:52:33.877Z,98839.84
2023-08-20T07:55:00.589Z,98839.84
2023-08-20T07:57:27.090Z,98829.91
2023-08-20T07:59:53.806Z,98837.13
2023-08-20T08:02:20.260Z,98829.66
2023-08-20T08:04:46.753Z,98828.34
2023-08-20T08:07:13.253Z,98836.75
2023-08-20T08:09:39.887Z,98839.59
2023-08-20T08:12:06.471Z,98843.88
2023-08-20T08:14:32.918Z,98841.19
2023-08-20T08:16:59.638Z,98844.91
2023-08-20T08:19:26.272Z,98847.56
2023-08-20T08:21:52.798Z,98844.06
2023-08-20T08:24:19.415Z,98850.22
2023-08-20T08:26:46.063Z,98846.59
2023-08-20T08:29:12.545Z,98848.44
2023-08-20T08:31:39.127Z,98850.19
2023-08-20T08:34:06.025Z,98848.56
2023-08-20T08:36:32.622Z,98852.91
2023-08-20T08:38:59.142Z,98865.19
2023-08-20T08:41:27.298Z,98866.41
2023-08-20T08:43:56.326Z,98860.88
2023-08-20T08:46:24.593Z,98870.81
2023-08-20T08:48:52.422Z,98864.69
2023-08-20T08:51:19.500Z,98868.09
2023-08-20T08:53:47.574Z,98866.84
2023-08-20T08:56:14.168Z,98857.28
2023-08-20T08:58:40.655Z,98858.44
2023-08-20T09:01:07.470Z,98859.41
2023-08-20T09:03:34.225Z,98849.94
2023-08-20T09:06:03.032Z,98860.69
2023-08-20T09:08:31.685Z,98867.22
2023-08-20T09:10:59.788Z,98864.84
2023-08-20T09:13:33.474Z,98860.44
2023-08-20T09:16:00.269Z,98858.94
2023-08-20T09:18:26.758Z,98852.00
2023-08-20T09:20:53.297Z,98845.31
2023-08-20T09:23:19.787Z,98862.06
2023-08-20T09:25:46.338Z,98860.38
2023-08-20T09:28:13.051Z,98860.56
2023-08-20T09:30:39.800Z,98863.97
2023-08-20T09:33:13.146Z,98848.56
2023-08-20T09:35:39.725Z,98838.22
2023-08-20T09:38:06.389Z,98858.84
2023-08-20T09:40:32.969Z,98856.28
2023-08-20T09:43:02.184Z,98860.59
2023-08-20T09:45:29.940Z,98862.84
2023-08-20T09:47:58.759Z,98865.94
2023-08-20T09:50:27.053Z,98865.88
2023-08-20T09:53:07.441Z,98869.28
2023-08-20T09:55:36.685Z,98865.38
2023-08-20T09:58:03.866Z,98871.81
2023-08-20T10:00:31.555Z,98866.16
2023-08-20T10:02:58.711Z,98860.88
2023-08-20T10:05:26.251Z,98864.28
2023-08-20T10:07:57.577Z,98863.63
2023-08-20T10:10:24.366Z,98861.78
2023-08-20T10:12:51.414Z,98863.38
2023-08-20T10:15:18.166Z,98863.09
2023-08-20T10:17:46.211Z,98856.25
2023-08-20T10:20:15.697Z,98860.53
2023-08-20T10:22:44.725Z,98857.72
2023-08-20T10:25:31.763Z,98850.56
2023-08-20T10:28:19.531Z,98861.22
2023-08-20T10:31:06.477Z,98857.38
2023-08-20T10:33:38.781Z,98857.69
2023-08-20T10:36:10.947Z,98861.34
2023-08-20T10:38:38.750Z,98861.03
2023-08-20T10:41:09.601Z,98859.78
2023-08-20T10:43:39.159Z,98859.75
2023-08-20T10:46:20.062Z,98858.44
2023-08-20T10:48:58.035Z,98855.41
2023-08-20T10:51:30.089Z,98857.59
2023-08-20T10:54:02.801Z,98855.06
2023-08-20T10:56:43.217Z,98850.94
2023-08-20T10:59:14.485Z,98861.97
2023-08-20T11:01:44.818Z,98857.91
2023-08-20T11:04:11.479Z,98859.31
2023-08-20T11:06:39.563Z,98856.00
2023-08-20T11:09:06.464Z,98858.97
2023-08-20T11:11:33.513Z,98860.91
2023-08-20T11:14:07.835Z,98854.16
2023-08-20T11:16:36.052Z,98854.94
2023-08-20T11:19:02.833Z,98857.38
2023-08-20T11:21:29.565Z,98858.56
2023-08-20T11:23:56.179Z,98857.91
2023-08-20T11:26:22.647Z,98859.56
2023-08-20T11:28:49.104Z,98855.38
2023-08-20T11:31:15.935Z,98851.38
2023-08-20T11:33:42.467Z,98851.16
2023-08-20T11:36:09.037Z,98857.75
2023-08-20T11:38:35.544Z,98855.69
2023-08-20T11:41:02.734Z,98861.13
2023-08-20T11:43:29.779Z,98860.63
2023-08-20T11:45:56.952Z,98859.50
2023-08-20T11:48:23.827Z,98856.47
2023-08-20T11:50:53.452Z,98855.13
2023-08-20T11:53:23.170Z,98860.53
2023-08-20T11:55:49.891Z,98857.25
2023-08-20T11:58:16.492Z,98855.66
2023-08-20T12:00:43.348Z,98851.25
2023-08-20T12:03:10.595Z,98847.44
2023-08-20T12:05:37.188Z,98845.88
2023-08-20T12:08:05.345Z,98853.56
2023-08-20T12:10:33.546Z,98853.03
2023-08-20T12:13:00.074Z,98851.66
2023-08-20T12:15:26.856Z,98857.88
2023-08-20T12:18:04.313Z,98855.53
2023-08-20T12:20:32.441Z,98844.22
2023-08-20T12:23:04.612Z,98846.03
2023-08-20T12:25:33.310Z,98839.88
2023-08-20T12:28:01.545Z,98833.22
2023-08-20T12:30:28.127Z,98843.69
2023-08-20T12:32:54.916Z,98841.56
2023-08-20T12:35:21.529Z,98847.22
2023-08-20T12:37:48.035Z,98835.91
2023-08-20T12:40:15.260Z,98840.66
2023-08-20T12:42:43.785Z,98835.19
2023-08-20T12:45:11.314Z,98830.41
2023-08-20T12:47:38.099Z,98821.72
2023-08-20T12:50:05.470Z,98829.69
2023-08-20T12:52:34.253Z,98826.72
2023-08-20T12:55:00.997Z,98832.75
2023-08-20T12:57:27.543Z,98820.38
2023-08-20T12:59:54.023Z,98827.38
2023-08-20T13:02:20.542Z,98819.94
2023-08-20T13:04:47.394Z,98816.91
2023-08-20T13:07:14.262Z,98820.06
2023-08-20T13:09:41.316Z,98814.78
2023-08-20T13:12:11.156Z,98821.63
2023-08-20T13:14:37.904Z,98821.50
2023-08-20T13:17:04.668Z,98816.38
2023-08-20T13:19:31.118Z,98811.69
2023-08-20T13:21:57.608Z,98814.78
2023-08-20T13:24:24.087Z,98812.28
2023-08-20T13:26:52.221Z,98810.41
2023-08-20T13:29:18.701Z,98815.16
2023-08-20T13:31:45.202Z,98818.06
2023-08-20T13:34:11.679Z,98818.38
2023-08-20T13:36:39.578Z,98816.06
2023-08-20T13:39:06.129Z,98819.38
2023-08-20T13:41:32.829Z,98818.06
2023-08-20T13:44:02.435Z,98821.22
2023-08-20T13:46:28.952Z,98814.56
2023-08-20T13:48:57.659Z,98817.22
2023-08-20T13:51:24.150Z,98815.66
2023-08-20T13:53:50.613Z,98806.22
2023-08-20T13:56:17.106Z,98804.59
2023-08-20T13:58:43.578Z,98795.50
2023-08-20T14:01:10.486Z,98802.22
2023-08-20T14:03:37.141Z,98797.22
2023-08-20T14:06:03.673Z,98797.56
2023-08-20T14:08:30.126Z,98797.44
2023-08-20T14:10:56.683Z,98798.50
2023-08-20T14:13:23.173Z,98794.75
2023-08-20T14:15:49.784Z,98794.03
2023-08-20T14:18:16.909Z,98798.22
2023-08-20T14:20:43.941Z,98793.44
2023-08-20T14:23:10.510Z,98798.88
2023-08-20T14:25:37.697Z,98789.97
2023-08-20T14:28:04.362Z,98785.22
2023-08-20T14:30:30.860Z,98790.56
2023-08-20T14:32:57.332Z,98789.88
2023-08-20T14:35:24.095Z,98791.38
2023-08-20T14:37:53.829Z,98790.97
2023-08-20T14:40:20.773Z,98793.09
2023-08-20T14:42:47.245Z,98797.19
2023-08-20T14:45:13.800Z,98794.00
2023-08-20T14:47:40.404Z,98786.41
2023-08-20T14:50:07.838Z,98790.84
2023-08-20T14:52:35.640Z,98793.03
2023-08-20T14:55:02.332Z,98784.69
2023-08-20T14:57:40.940Z,98777.34
2023-08-20T15:00:13.138Z,98784.34
2023-08-20T15:02:39.910Z,98774.03
2023-08-20T15:05:06.627Z,98771.81
2023-08-20T15:07:33.351Z,98764.78
2023-08-20T15:09:59.873Z,98776.53
2023-08-20T15:12:26.358Z,98768.59
2023-08-20T15:14:52.849Z,98759.19
2023-08-20T15:17:19.387Z,98768.91
2023-08-20T15:19:45.839Z,98771.72
2023-08-20T15:22:14.849Z,98777.03
2023-08-20T15:24:41.314Z,98771.06
2023-08-20T15:27:07.793Z,98769.91
2023-08-20T15:29:34.228Z,98776.63
2023-08-20T15:32:01.109Z,98778.34
2023-08-20T15:34:28.029Z,98768.59
2023-08-20T15:36:54.584Z,98769.53
2023-08-20T15:39:21.272Z,98767.13
2023-08-20T15:41:47.743Z,98770.41
2023-08-20T15:44:14.648Z,98764.66
2023-08-20T15:46:41.137Z,98762.38
2023-08-20T15:49:07.723Z,98775.53
2023-08-20T15:51:34.807Z,98763.31
2023-08-20T15:54:01.578Z,98761.88
2023-08-20T15:56:28.086Z,98769.34
2023-08-20T15:58:54.551Z,98764.16
2023-08-20T16:01:21.217Z,98763.66
2023-08-20T16:03:47.782Z,98766.50
2023-08-20T16:06:14.541Z,98758.59
2023-08-20T16:08:41.005Z,98763.09
2023-08-20T16:11:07.528Z,98754.44
2023-08-20T16:13:34.006Z,98761.66
2023-08-20T16:16:01.414Z,98755.81
2023-08-20T16:18:27.911Z,98760.22
2023-08-20T16:20:54.612Z,98749.81
2023-08-20T16:23:21.080Z,98749.47
2023-08-20T16:25:47.558Z,98747.47
2023-08-20T16:28:14.038Z,98744.47
2023-08-20T16:30:40.843Z,98756.94
2023-08-20T16:33:08.478Z,98754.66
2023-08-20T16:35:35.249Z,98752.16
2023-08-20T16:38:01.864Z,98751.72
2023-08-20T16:40:28.461Z,98759.66
2023-08-20T16:42:55.008Z,98758.53
2023-08-20T16:45:21.868Z,98766.00
2023-08-20T16:47:48.779Z,98757.47
2023-08-20T16:50:15.547Z,98759.22
2023-08-20T16:52:42.037Z,98762.41
2023-08-20T16:55:08.931Z,98765.31
2023-08-20T16:57:35.756Z,98756.75
2023-08-20T17:00:02.585Z,98756.94
2023-08-20T17:02:29.473Z,98757.00
2023-08-20T17:04:56.066Z,98753.06
2023-08-20T17:07:22.556Z,98750.72
2023-08-20T17:09:49.108Z,98750.34
2023-08-20T17:12:16.004Z,98758.13
2023-08-20T17:14:42.598Z,98760.06
2023-08-20T17:17:09.765Z,98753.63
2023-08-20T17:19:36.268Z,98751.84
2023-08-20T17:22:02.773Z,98761.44
2023-08-20T17:24:29.241Z,98767.97
2023-08-20T17:26:55.713Z,98767.75
2023-08-20T17:29:22.166Z,98760.03
2023-08-20T17:31:48.630Z,98765.16
2023-08-20T17:34:15.143Z,98765.50
2023-08-20T17:36:41.641Z,98764.34
2023-08-20T17:39:08.183Z,98767.53
2023-08-20T17:41:34.783Z,98765.06
2023-08-20T17:44:01.246Z,98769.16
2023-08-20T17:46:42.671Z,98769.84
2023-08-20T17:49:09.201Z,98770.00
2023-08-20T17:51:37.232Z,98762.44
2023-08-20T17:54:04.043Z,98767.78
2023-08-20T17:56:30.830Z,98763.56
2023-08-20T17:58:57.399Z,98761.44
2023-08-20T18:01:23.977Z,98765.53
2023-08-20T18:03:50.831Z,98762.00
2023-08-20T18:06:17.594Z,98768.94
2023-08-20T18:08:46.808Z,98772.91
2023-08-20T18:11:13.391Z,98768.09
2023-08-20T18:13:40.972Z,98771.78
2023-08-20T18:16:07.574Z,98765.91
2023-08-20T18:18:34.816Z,98764.84
2023-08-20T18:21:01.294Z,98768.66
2023-08-20T18:23:27.791Z,98774.28
2023-08-20T18:25:54.637Z,98785.28
2023-08-20T18:28:21.168Z,98786.75
2023-08-20T18:30:51.532Z,98783.53
2023-08-20T18:33:19.114Z,98780.78
2023-08-20T18:35:45.638Z,98781.66
2023-08-20T18:38:17.626Z,98781.06
2023-08-20T18:40:44.105Z,98784.16
2023-08-20T18:43:10.674Z,98784.25
2023-08-20T18:45:37.204Z,98783.56
2023-08-20T18:48:03.970Z,98779.97
2023-08-20T18:50:30.491Z,98791.13
2023-08-20T18:52:57.232Z,98798.56
2023-08-20T18:55:23.712Z,98800.44
2023-08-20T18:57:50.190Z,98802.09
2023-08-20T19:00:16.937Z,98812.72
2023-08-20T19:02:43.564Z,98813.09
2023-08-20T19:05:11.498Z,98813.44
2023-08-20T19:07:37.964Z,98815.16
2023-08-20T19:10:04.877Z,98814.88
2023-08-20T19:12:31.337Z,98820.69
2023-08-20T19:14:57.809Z,98822.44
2023-08-20T19:17:24.330Z,98821.50
2023-08-20T19:19:50.834Z,98820.50
2023-08-20T19:22:17.319Z,98829.06
2023-08-20T19:24:43.838Z,98816.31
2023-08-20T19:27:10.292Z,98822.41
2023-08-20T19:29:36.767Z,98826.84
2023-08-20T19:32:03.298Z,98836.31
2023-08-20T19:34:31.844Z,98826.75
2023-08-20T19:36:58.798Z,98825.63
2023-08-20T19:39:25.489Z,98827.13
2023-08-20T19:41:52.088Z,98827.19
2023-08-20T19:44:18.665Z,98824.28
2023-08-20T19:46:45.723Z,98831.16
2023-08-20T19:49:12.233Z,98834.53
2023-08-20T19:51:39.210Z,98830.94
2023-08-20T19:54:06.419Z,98831.50
2023-08-20T19:56:32.980Z,98831.28
2023-08-20T19:58:59.455Z,98832.19
2023-08-20T20:01:27.040Z,98838.63
2023-08-20T20:03:53.912Z,98828.75
2023-08-20T20:06:23.810Z,98839.47
2023-08-20T20:08:50.317Z,98838.81
2023-08-20T20:11:17.815Z,98827.34
2023-08-20T20:13:44.332Z,98836.13
2023-08-20T20:16:10.914Z,98840.63
2023-08-20T20:18:37.578Z,98838.47
2023-08-20T20:21:04.074Z,98836.56
2023-08-20T20:23:30.546Z,98840.66
2023-08-20T20:25:57.161Z,98835.94
2023-08-20T20:28:23.607Z,98839.53
2023-08-20T20:30:50.108Z,98833.53
2023-08-20T20:33:16.589Z,98837.91
2023-08-20T20:35:43.084Z,98846.69
2023-08-20T20:38:09.532Z,98846.09
2023-08-20T20:40:36.125Z,98843.84
2023-08-20T20:43:02.601Z,98852.66
2023-08-20T20:45:29.427Z,98842.34
2023-08-20T20:47:55.960Z,98850.78
2023-08-20T20:50:22.501Z,98848.34
2023-08-20T20:52:48.997Z,98857.69
2023-08-20T20:55:15.633Z,98858.94
2023-08-20T20:57:42.189Z,98854.56
2023-08-20T21:00:09.411Z,98862.09
2023-08-20T21:02:36.283Z,98865.69
2023-08-20T21:05:03.094Z,98867.72
2023-08-20T21:07:29.807Z,98863.03
2023-08-20T21:12:23.107Z,98871.13
2023-08-20T21:14:49.658Z,98873.63
2023-08-20T21:17:16.130Z,98854.56
2023-08-20T21:19:42.567Z,98879.88
2023-08-20T21:22:13.264Z,98890.34
2023-08-20T21:24:40.270Z,98880.81
2023-08-20T21:27:07.578Z,98883.31
2023-08-20T21:29:38.530Z,98884.59
2023-08-20T21:32:05.399Z,98885.50
2023-08-20T21:34:32.148Z,98886.63
2023-08-20T21:37:00.086Z,98884.91
2023-08-20T21:39:26.600Z,98885.69
2023-08-20T21:41:53.384Z,98879.00
2023-08-20T21:44:20.024Z,98879.94
2023-08-20T21:46:46.742Z,98872.75
2023-08-20T21:49:13.262Z,98876.81
2023-08-20T21:51:40.157Z,98873.22
2023-08-20T21:54:06.629Z,98872.75
2023-08-20T21:56:35.474Z,98869.34
2023-08-20T21:59:04.975Z,98878.09
2023-08-20T22:01:31.531Z,98880.44
2023-08-20T22:03:58.082Z,98875.72
2023-08-20T22:06:24.609Z,98867.44
2023-08-20T22:08:51.370Z,98873.06
2023-08-20T22:11:17.864Z,98879.44
2023-08-20T22:13:44.437Z,98877.75
2023-08-20T22:16:10.983Z,98887.72
2023-08-20T22:18:37.507Z,98880.56
2023-08-20T22:21:04.134Z,98878.97
2023-08-20T22:23:31.409Z,98879.59
2023-08-20T22:25:57.939Z,98888.00
2023-08-20T22:28:24.423Z,98884.56
2023-08-20T22:30:50.893Z,98885.97
2023-08-20T22:33:17.412Z,98879.59
2023-08-20T22:35:50.087Z,98882.72
2023-08-20T22:38:16.568Z,98882.06
2023-08-20T22:40:43.713Z,98878.97
2023-08-20T22:43:10.414Z,98876.31
2023-08-20T22:45:37.072Z,98875.22
2023-08-20T22:48:03.847Z,98880.03
2023-08-20T22:50:30.830Z,98875.81
2023-08-20T22:52:57.917Z,98875.81
2023-08-20T22:55:25.327Z,98878.31
2023-08-20T22:57:52.065Z,98873.94
2023-08-20T23:00:18.805Z,98876.44
2023-08-20T23:02:48.704Z,98872.66
2023-08-20T23:05:15.292Z,98870.19
2023-08-20T23:07:41.871Z,98875.50
2023-08-20T23:10:08.715Z,98866.28
2023-08-20T23:12:35.387Z,98874.72
2023-08-20T23:15:02.077Z,98868.00
2023-08-20T23:17:28.745Z,98868.59
2023-08-20T23:19:55.388Z,98868.00
2023-08-20T23:22:21.908Z,98868.13
2023-08-20T23:24:48.731Z,98870.31
2023-08-20T23:27:15.344Z,98864.22
2023-08-20T23:29:41.782Z,98867.03
2023-08-20T23:32:08.254Z,98856.72
2023-08-20T23:34:34.699Z,98867.50
2023-08-20T23:37:01.195Z,98867.81
2023-08-20T23:39:27.636Z,98851.06
2023-08-20T23:41:54.140Z,98869.69
2023-08-20T23:44:20.748Z,98860.00
2023-08-20T23:46:48.629Z,98862.53
2023-08-20T23:49:15.872Z,98860.00
2023-08-20T23:51:42.358Z,98860.47
2023-08-20T23:54:08.843Z,98859.19
2023-08-20T23:56:35.707Z,98857.66
2023-08-20T23:59:02.233Z,98857.38
